sensor_id;sensor_type;location;lat;lon;timestamp;pressure;altitude;pressure_sealevel;temperature;humidity
61880;BME280;47817;52.798;27.544;2022-12-17T00:04:53;1020.1;;;-0.5;89.2
61880;BME280;47817;52.798;27.544;2022-12-17T00:09:21;1020.1;;;-0.6;89.3
61880;BME280;47817;52.798;27.544;2022-12-17T00:14:39;1020;;;-0.6;89.3
61880;BME280;47817;52.798;27.544;2022-12-17T00:20:02;1020.1;;;-0.6;89.2
61880;BME280;47817;52.798;27.544;2022-12-17T00:24:21;1020;;;-0.6;89.1
61880;BME280;47817;52.798;27.544;2022-12-17T00:29:21;1019.9;;;-0.6;89.2
61880;BME280;47817;52.798;27.544;2022-12-17T00:34:37;1019.7;;;-0.7;89.2
61880;BME280;47817;52.798;27.544;2022-12-17T00:39:21;1019.8;;;-0.7;89.2
61880;BME280;47817;52.798;27.544;2022-12-17T00:45:06;1019.8;;;-0.7;89.1
61880;BME280;47817;52.798;27.544;2022-12-17T00:49:53;1019.7;;;-0.8;89.3
61880;BME280;47817;52.798;27.544;2022-12-17T00:54:55;1019.6;;;-0.8;89.2
61880;BME280;47817;52.798;27.544;2022-12-17T00:59:29;1019.7;;;-0.8;89.3
61880;BME280;47817;52.798;27.544;2022-12-17T01:04:39;1020;;;-0.8;89.4
61880;BME280;47817;52.798;27.544;2022-12-17T01:10:02;1020;;;-0.8;89.3
61880;BME280;47817;52.798;27.544;2022-12-17T01:14:29;1020.2;;;-0.8;89.3
61880;BME280;47817;52.798;27.544;2022-12-17T01:19:45;1020.2;;;-0.8;89.2
61880;BME280;47817;52.798;27.544;2022-12-17T01:24:33;1020.1;;;-0.8;89.2
61880;BME280;47817;52.798;27.544;2022-12-17T01:29:31;1020.1;;;-0.7;89.2
61880;BME280;47817;52.798;27.544;2022-12-17T01:35:07;1019.9;;;-0.7;88.9
61880;BME280;47817;52.798;27.544;2022-12-17T01:39:45;1020;;;-0.6;88.8
61880;BME280;47817;52.798;27.544;2022-12-17T01:44:49;1020.1;;;-0.7;88.8
61880;BME280;47817;52.798;27.544;2022-12-17T01:49:33;1020.2;;;-0.8;89
61880;BME280;47817;52.798;27.544;2022-12-17T01:54:44;1020.3;;;-0.8;89
61880;BME280;47817;52.798;27.544;2022-12-17T02:00:10;1020.3;;;-0.7;88.6
61880;BME280;47817;52.798;27.544;2022-12-17T02:04:35;1020.3;;;-0.7;88.6
61880;BME280;47817;52.798;27.544;2022-12-17T02:09:45;1020.2;;;-0.7;88.6
61880;BME280;47817;52.798;27.544;2022-12-17T02:14:47;1020.3;;;-0.8;88.7
61880;BME280;47817;52.798;27.544;2022-12-17T02:20:13;1020.4;;;-0.7;88.5
61880;BME280;47817;52.798;27.544;2022-12-17T02:25:01;1020.4;;;-0.7;88.5
61880;BME280;47817;52.798;27.544;2022-12-17T02:29:56;1020.4;;;-0.7;88.4
61880;BME280;47817;52.798;27.544;2022-12-17T02:34:58;1020.3;;;-0.7;88.4
61880;BME280;47817;52.798;27.544;2022-12-17T02:39:21;1020.4;;;-0.7;88.3
61880;BME280;47817;52.798;27.544;2022-12-17T02:45:06;1020.4;;;-0.6;88.3
61880;BME280;47817;52.798;27.544;2022-12-17T02:50:10;1020.1;;;-0.7;88.1
61880;BME280;47817;52.798;27.544;2022-12-17T02:54:43;1020.1;;;-0.7;88.1
61880;BME280;47817;52.798;27.544;2022-12-17T02:59:43;1020;;;-0.8;88.1
61880;BME280;47817;52.798;27.544;2022-12-17T03:04:45;1019.9;;;-0.7;88.1
61880;BME280;47817;52.798;27.544;2022-12-17T03:10:04;1019.8;;;-0.7;88.1
61880;BME280;47817;52.798;27.544;2022-12-17T03:15:06;1019.9;;;-0.7;88.1
61880;BME280;47817;52.798;27.544;2022-12-17T03:20:04;1019.9;;;-0.7;88
61880;BME280;47817;52.798;27.544;2022-12-17T03:24:54;1020.1;;;-0.7;88
61880;BME280;47817;52.798;27.544;2022-12-17T03:29:32;1020.2;;;-0.6;87.9
61880;BME280;47817;52.798;27.544;2022-12-17T03:35:06;1020.2;;;-0.7;87.6
61880;BME280;47817;52.798;27.544;2022-12-17T03:40:08;1020.2;;;-0.8;87.4
61880;BME280;47817;52.798;27.544;2022-12-17T03:44:34;1020.3;;;-0.9;87.5
61880;BME280;47817;52.798;27.544;2022-12-17T03:49:44;1020.3;;;-1;87.7
61880;BME280;47817;52.798;27.544;2022-12-17T03:54:44;1020.3;;;-1;87.8
61880;BME280;47817;52.798;27.544;2022-12-17T04:00:04;1020.3;;;-0.9;87.7
61880;BME280;47817;52.798;27.544;2022-12-17T04:05:04;1020.3;;;-1;87.8
61880;BME280;47817;52.798;27.544;2022-12-17T04:09:54;1020.3;;;-1;87.8
61880;BME280;47817;52.798;27.544;2022-12-17T04:14:44;1020.2;;;-1;87.7
61880;BME280;47817;52.798;27.544;2022-12-17T04:19:22;1020.3;;;-1.1;87.7
61880;BME280;47817;52.798;27.544;2022-12-17T04:25:06;1020.4;;;-1.1;87.9
61880;BME280;47817;52.798;27.544;2022-12-17T04:30:06;1020.3;;;-1.1;87.8
61880;BME280;47817;52.798;27.544;2022-12-17T04:34:32;1020.4;;;-1.1;87.9
61880;BME280;47817;52.798;27.544;2022-12-17T04:39:56;1020.3;;;-1.1;87.9
61880;BME280;47817;52.798;27.544;2022-12-17T04:44:22;1020.3;;;-1;87.8
61880;BME280;47817;52.798;27.544;2022-12-17T04:50:08;1020.4;;;-1.1;87.9
61880;BME280;47817;52.798;27.544;2022-12-17T04:54:56;1020.6;;;-1.1;87.9
61880;BME280;47817;52.798;27.544;2022-12-17T04:59:58;1020.8;;;-1.2;87.9
61880;BME280;47817;52.798;27.544;2022-12-17T05:04:56;1020.8;;;-1.2;87.9
61880;BME280;47817;52.798;27.544;2022-12-17T05:09:34;1020.8;;;-1.2;87.9
61880;BME280;47817;52.798;27.544;2022-12-17T05:15:08;1020.9;;;-1.2;88
61880;BME280;47817;52.798;27.544;2022-12-17T05:20:08;1020.9;;;-1.2;88
61880;BME280;47817;52.798;27.544;2022-12-17T05:24:34;1021;;;-1.2;88
61880;BME280;47817;52.798;27.544;2022-12-17T05:29:48;1021.1;;;-1.3;88.1
61880;BME280;47817;52.798;27.544;2022-12-17T05:34:46;1021.1;;;-1.3;88
61880;BME280;47817;52.798;27.544;2022-12-17T05:40:06;1021.2;;;-1.4;88.2
61880;BME280;47817;52.798;27.544;2022-12-17T05:45:06;1021;;;-1.4;88.1
61880;BME280;47817;52.798;27.544;2022-12-17T05:49:58;1020.9;;;-1.3;88.1
61880;BME280;47817;52.798;27.544;2022-12-17T05:54:58;1021;;;-1.3;88
61880;BME280;47817;52.798;27.544;2022-12-17T05:59:22;1021;;;-1.3;88
61880;BME280;47817;52.798;27.544;2022-12-17T06:05:08;1021;;;-1.3;88.1
61880;BME280;47817;52.798;27.544;2022-12-17T06:10:04;1021.1;;;-1.4;88.2
61880;BME280;47817;52.798;27.544;2022-12-17T06:14:44;1021;;;-1.4;88.2
61880;BME280;47817;52.798;27.544;2022-12-17T06:19:22;1020.9;;;-1.4;88.2
61880;BME280;47817;52.798;27.544;2022-12-17T06:25:08;1020.8;;;-1.3;88.3
61880;BME280;47817;52.798;27.544;2022-12-17T06:30:08;1021.1;;;-1.2;88.4
61880;BME280;47817;52.798;27.544;2022-12-17T06:34:32;1021.4;;;-1.2;88.4
61880;BME280;47817;52.798;27.544;2022-12-17T06:39:48;1021.6;;;-1.2;88.4
61880;BME280;47817;52.798;27.544;2022-12-17T06:44:44;1021.7;;;-1.2;88.4
61880;BME280;47817;52.798;27.544;2022-12-17T06:49:22;1021.8;;;-1.2;88.3
61880;BME280;47817;52.798;27.544;2022-12-17T06:54:56;1022;;;-1.1;88.1
61880;BME280;47817;52.798;27.544;2022-12-17T06:59:58;1022;;;-1;87.8
61880;BME280;47817;52.798;27.544;2022-12-17T07:04:32;1022;;;-1;87.9
61880;BME280;47817;52.798;27.544;2022-12-17T07:09:32;1022;;;-1;87.9
61880;BME280;47817;52.798;27.544;2022-12-17T07:14:54;1022.1;;;-1;87.9
61880;BME280;47817;52.798;27.544;2022-12-17T07:20:06;1022;;;-1;87.7
61880;BME280;47817;52.798;27.544;2022-12-17T07:24:22;1022;;;-1;87.5
61880;BME280;47817;52.798;27.544;2022-12-17T07:29:52;1022;;;-1;87.3
61880;BME280;47817;52.798;27.544;2022-12-17T07:34:22;1022.1;;;-1;87.2
61880;BME280;47817;52.798;27.544;2022-12-17T07:39:22;1022.2;;;-1;87
61880;BME280;47817;52.798;27.544;2022-12-17T07:44:48;1022.1;;;-1.2;87.1
61880;BME280;47817;52.798;27.544;2022-12-17T07:49:58;1022.1;;;-1.2;87
61880;BME280;47817;52.798;27.544;2022-12-17T07:54:34;1022.1;;;-1;86.8
61880;BME280;47817;52.798;27.544;2022-12-17T07:59:34;1022;;;-0.9;86.5
61880;BME280;47817;52.798;27.544;2022-12-17T08:05:04;1021.9;;;-0.8;85.9
61880;BME280;47817;52.798;27.544;2022-12-17T08:10:06;1022;;;-0.7;85.6
61880;BME280;47817;52.798;27.544;2022-12-17T08:14:22;1022.1;;;-0.8;85.7
61880;BME280;47817;52.798;27.544;2022-12-17T08:19:46;1022;;;-0.7;85.5
61880;BME280;47817;52.798;27.544;2022-12-17T08:24:56;1022.1;;;-0.6;85.2
61880;BME280;47817;52.798;27.544;2022-12-17T08:29:58;1022.2;;;-0.5;85
61880;BME280;47817;52.798;27.544;2022-12-17T08:34:46;1022.2;;;-0.5;84.7
61880;BME280;47817;52.798;27.544;2022-12-17T08:39:56;1022.2;;;-0.5;84.4
61880;BME280;47817;52.798;27.544;2022-12-17T08:44:34;1022.1;;;-0.5;84.4
61880;BME280;47817;52.798;27.544;2022-12-17T08:49:44;1022.2;;;-0.5;84.2
61880;BME280;47817;52.798;27.544;2022-12-17T08:55:06;1022.3;;;-0.5;83.9
61880;BME280;47817;52.798;27.544;2022-12-17T09:00:04;1022.3;;;-0.5;83.5
61880;BME280;47817;52.798;27.544;2022-12-17T09:04:22;1022.4;;;-0.5;83.2
61880;BME280;47817;52.798;27.544;2022-12-17T09:09:54;1022.5;;;-0.6;83.3
61880;BME280;47817;52.798;27.544;2022-12-17T09:14:46;1022.4;;;-0.7;83.2
61880;BME280;47817;52.798;27.544;2022-12-17T09:19:34;1022.2;;;-0.8;83.4
61880;BME280;47817;52.798;27.544;2022-12-17T09:24:58;1022.2;;;-0.9;83.2
61880;BME280;47817;52.798;27.544;2022-12-17T09:29:56;1022.3;;;-1;83.1
61880;BME280;47817;52.798;27.544;2022-12-17T09:34:34;1022.2;;;-0.9;83.2
61880;BME280;47817;52.798;27.544;2022-12-17T09:39:40;1022.3;;;-0.9;82.9
61880;BME280;47817;52.798;27.544;2022-12-17T09:45:07;1022.3;;;-1;83
61880;BME280;47817;52.798;27.544;2022-12-17T09:50:10;1022.4;;;-1.1;83.2
61880;BME280;47817;52.798;27.544;2022-12-17T09:54:24;1022.3;;;-1.1;83.2
61880;BME280;47817;52.798;27.544;2022-12-17T09:59:54;1022.3;;;-1;83.3
61880;BME280;47817;52.798;27.544;2022-12-17T10:04:41;1022.3;;;-1.1;83
61880;BME280;47817;52.798;27.544;2022-12-17T10:09:22;1022.3;;;-1.1;83
61880;BME280;47817;52.798;27.544;2022-12-17T10:14:56;1022.2;;;-1.1;83
61880;BME280;47817;52.798;27.544;2022-12-17T10:19:54;1022.1;;;-1;83.2
61880;BME280;47817;52.798;27.544;2022-12-17T10:24:22;1022.1;;;-1;83.5
61880;BME280;47817;52.798;27.544;2022-12-17T10:29:44;1022.2;;;-1;83.3
61880;BME280;47817;52.798;27.544;2022-12-17T10:35:06;1022.2;;;-0.9;83.2
61880;BME280;47817;52.798;27.544;2022-12-17T10:39:54;1022.2;;;-0.8;83
61880;BME280;47817;52.798;27.544;2022-12-17T10:44:34;1022.2;;;-0.8;82.8
61880;BME280;47817;52.798;27.544;2022-12-17T10:49:54;1022.1;;;-0.8;82.8
61880;BME280;47817;52.798;27.544;2022-12-17T10:54:53;1022.1;;;-0.9;82.7
61880;BME280;47817;52.798;27.544;2022-12-17T10:59:32;1022.1;;;-0.8;82.6
61880;BME280;47817;52.798;27.544;2022-12-17T11:05:12;1022.1;;;-0.8;82.5
61880;BME280;47817;52.798;27.544;2022-12-17T11:10:09;1022.3;;;-0.7;82.1
61880;BME280;47817;52.798;27.544;2022-12-17T11:14:22;1022.4;;;-0.7;82.1
61880;BME280;47817;52.798;27.544;2022-12-17T11:19:25;1022.3;;;-0.8;82
61880;BME280;47817;52.798;27.544;2022-12-17T11:24:45;1022.4;;;-0.9;82
61880;BME280;47817;52.798;27.544;2022-12-17T11:29:54;1022.3;;;-1;81.9
61880;BME280;47817;52.798;27.544;2022-12-17T11:34:34;1022.3;;;-0.9;81.8
61880;BME280;47817;52.798;27.544;2022-12-17T11:39:46;1022.4;;;-0.9;81.7
61880;BME280;47817;52.798;27.544;2022-12-17T11:45:05;1022.4;;;-1.1;81.9
61880;BME280;47817;52.798;27.544;2022-12-17T11:49:34;1022.4;;;-1.2;82.3
61880;BME280;47817;52.798;27.544;2022-12-17T11:55:04;1022.4;;;-1.4;83
61880;BME280;47817;52.798;27.544;2022-12-17T12:00:11;1022.5;;;-1.4;83
61880;BME280;47817;52.798;27.544;2022-12-17T12:04:51;1022.4;;;-1.4;82.9
61880;BME280;47817;52.798;27.544;2022-12-17T12:09:45;1022.4;;;-1.4;83.1
61880;BME280;47817;52.798;27.544;2022-12-17T12:14:56;1022.3;;;-1.4;83.3
61880;BME280;47817;52.798;27.544;2022-12-17T12:19:58;1022.1;;;-1.4;84
61880;BME280;47817;52.798;27.544;2022-12-17T12:24:42;1022.2;;;-1.3;84
61880;BME280;47817;52.798;27.544;2022-12-17T12:29:45;1022.1;;;-1.4;84.2
61880;BME280;47817;52.798;27.544;2022-12-17T12:34:23;1022.1;;;-1.5;84.7
61880;BME280;47817;52.798;27.544;2022-12-17T12:39:33;1022.1;;;-1.5;85.6
61880;BME280;47817;52.798;27.544;2022-12-17T12:45:05;1022;;;-1.5;85.8
61880;BME280;47817;52.798;27.544;2022-12-17T12:50:07;1022.1;;;-1.6;85.8
61880;BME280;47817;52.798;27.544;2022-12-17T12:54:50;1022.1;;;-1.7;85.8
61880;BME280;47817;52.798;27.544;2022-12-17T12:59:46;1022.1;;;-1.7;85.8
61880;BME280;47817;52.798;27.544;2022-12-17T13:04:54;1022.2;;;-1.9;85.9
61880;BME280;47817;52.798;27.544;2022-12-17T13:09:56;1022.2;;;-2;86.2
61880;BME280;47817;52.798;27.544;2022-12-17T13:14:32;1022.1;;;-2;86.1
61880;BME280;47817;52.798;27.544;2022-12-17T13:19:44;1022.1;;;-2.1;86.4
61880;BME280;47817;52.798;27.544;2022-12-17T13:24:45;1022.2;;;-2.2;86.5
61880;BME280;47817;52.798;27.544;2022-12-17T13:29:22;1022.1;;;-2.2;86.4
61880;BME280;47817;52.798;27.544;2022-12-17T13:35:10;1022.3;;;-2.3;86.2
61880;BME280;47817;52.798;27.544;2022-12-17T13:40:11;1022.2;;;-2.4;86.1
61880;BME280;47817;52.798;27.544;2022-12-17T13:45:04;1022.3;;;-2.4;86.2
61880;BME280;47817;52.798;27.544;2022-12-17T13:49:48;1022.2;;;-2.4;86.1
61880;BME280;47817;52.798;27.544;2022-12-17T13:55:04;1022.2;;;-2.5;86.2
61880;BME280;47817;52.798;27.544;2022-12-17T13:59:55;1022.2;;;-2.5;86.2
61880;BME280;47817;52.798;27.544;2022-12-17T14:04:42;1022.3;;;-2.5;86.1
61880;BME280;47817;52.798;27.544;2022-12-17T14:09:54;1022.3;;;-2.5;85.9
61880;BME280;47817;52.798;27.544;2022-12-17T14:14:44;1022.4;;;-2.5;85.9
61880;BME280;47817;52.798;27.544;2022-12-17T14:19:44;1022.4;;;-2.5;85.5
61880;BME280;47817;52.798;27.544;2022-12-17T14:25:12;1022.3;;;-2.5;85.6
61880;BME280;47817;52.798;27.544;2022-12-17T14:30:18;1022.4;;;-2.5;85.4
61880;BME280;47817;52.798;27.544;2022-12-17T14:34:56;1022.5;;;-2.5;85.2
61880;BME280;47817;52.798;27.544;2022-12-17T14:39:32;1022.5;;;-2.5;85.1
61880;BME280;47817;52.798;27.544;2022-12-17T14:45:20;1022.5;;;-2.6;85.1
61880;BME280;47817;52.798;27.544;2022-12-17T14:49:58;1022.6;;;-2.6;85.1
61880;BME280;47817;52.798;27.544;2022-12-17T14:54:56;1022.6;;;-2.6;84.9
61880;BME280;47817;52.798;27.544;2022-12-17T14:59:44;1022.6;;;-2.6;84.9
61880;BME280;47817;52.798;27.544;2022-12-17T15:04:56;1022.7;;;-2.7;84.7
61880;BME280;47817;52.798;27.544;2022-12-17T15:09:34;1022.7;;;-2.7;84.7
61880;BME280;47817;52.798;27.544;2022-12-17T15:14:54;1022.7;;;-2.8;84.7
61880;BME280;47817;52.798;27.544;2022-12-17T15:19:42;1022.8;;;-2.8;84.9
61880;BME280;47817;52.798;27.544;2022-12-17T15:24:32;1022.8;;;-2.8;85
61880;BME280;47817;52.798;27.544;2022-12-17T15:29:32;1022.9;;;-2.9;85.2
61880;BME280;47817;52.798;27.544;2022-12-17T15:34:56;1022.9;;;-2.9;85.4
61880;BME280;47817;52.798;27.544;2022-12-17T15:40:06;1023;;;-2.9;85.4
61880;BME280;47817;52.798;27.544;2022-12-17T15:44:36;1023;;;-3;85.5
61880;BME280;47817;52.798;27.544;2022-12-17T15:49:56;1023;;;-3;85.5
61880;BME280;47817;52.798;27.544;2022-12-17T15:54:54;1023;;;-3;85.8
61880;BME280;47817;52.798;27.544;2022-12-17T15:59:28;1023;;;-3;86
61880;BME280;47817;52.798;27.544;2022-12-17T16:05:06;1023;;;-3;86
61880;BME280;47817;52.798;27.544;2022-12-17T16:09:42;1023;;;-3;85.9
61880;BME280;47817;52.798;27.544;2022-12-17T16:14:42;1023;;;-3;86
61880;BME280;47817;52.798;27.544;2022-12-17T16:19:22;1023.1;;;-3;86.5
61880;BME280;47817;52.798;27.544;2022-12-17T16:24:58;1023.1;;;-3;87.2
61880;BME280;47817;52.798;27.544;2022-12-17T16:30:06;1023.1;;;-3;88.2
61880;BME280;47817;52.798;27.544;2022-12-17T16:34:32;1023.1;;;-3;88.5
61880;BME280;47817;52.798;27.544;2022-12-17T16:39:56;1023.1;;;-3;88.6
61880;BME280;47817;52.798;27.544;2022-12-17T16:44:56;1023.1;;;-3;88.7
61880;BME280;47817;52.798;27.544;2022-12-17T16:49:32;1023.1;;;-3;89.4
61880;BME280;47817;52.798;27.544;2022-12-17T16:55:02;1023.1;;;-2.9;89.3
61880;BME280;47817;52.798;27.544;2022-12-17T16:59:44;1023.2;;;-3;89.2
61880;BME280;47817;52.798;27.544;2022-12-17T17:04:36;1023.2;;;-3;89.1
61880;BME280;47817;52.798;27.544;2022-12-17T17:09:22;1023.3;;;-3;89.2
61880;BME280;47817;52.798;27.544;2022-12-17T17:14:54;1023.3;;;-3;89.5
61880;BME280;47817;52.798;27.544;2022-12-17T17:20:06;1023.2;;;-3;89.6
61880;BME280;47817;52.798;27.544;2022-12-17T17:24:22;1023.2;;;-3;89.4
61880;BME280;47817;52.798;27.544;2022-12-17T17:29:54;1023.3;;;-3.1;89.5
61880;BME280;47817;52.798;27.544;2022-12-17T17:34:54;1023.3;;;-3.2;89.4
61880;BME280;47817;52.798;27.544;2022-12-17T17:39:22;1023.4;;;-3.2;89.9
61880;BME280;47817;52.798;27.544;2022-12-17T17:45:04;1023.5;;;-3.3;90.1
61880;BME280;47817;52.798;27.544;2022-12-17T17:49:32;1023.6;;;-3.2;90.1
61880;BME280;47817;52.798;27.544;2022-12-17T17:54:44;1023.8;;;-3.2;90.3
61880;BME280;47817;52.798;27.544;2022-12-17T17:59:32;1023.9;;;-3.1;90.3
61880;BME280;47817;52.798;27.544;2022-12-17T18:04:54;1024;;;-3.1;90.2
61880;BME280;47817;52.798;27.544;2022-12-17T18:10:06;1024;;;-3.2;90
61880;BME280;47817;52.798;27.544;2022-12-17T18:14:32;1024.1;;;-3.3;90.1
61880;BME280;47817;52.798;27.544;2022-12-17T18:19:56;1024.1;;;-3.3;90.3
61880;BME280;47817;52.798;27.544;2022-12-17T18:24:54;1024.2;;;-3.4;90.6
61880;BME280;47817;52.798;27.544;2022-12-17T18:29:44;1024.3;;;-3.5;90.7
61880;BME280;47817;52.798;27.544;2022-12-17T18:35:06;1024.4;;;-3.5;90.5
61880;BME280;47817;52.798;27.544;2022-12-17T18:39:42;1024.4;;;-3.5;90.4
61880;BME280;47817;52.798;27.544;2022-12-17T18:44:42;1024.4;;;-3.5;90
61880;BME280;47817;52.798;27.544;2022-12-17T18:49:44;1024.5;;;-3.5;90
61880;BME280;47817;52.798;27.544;2022-12-17T18:54:56;1024.4;;;-3.5;89.5
61880;BME280;47817;52.798;27.544;2022-12-17T19:00:06;1024.3;;;-3.6;89.5
61880;BME280;47817;52.798;27.544;2022-12-17T19:04:22;1024.4;;;-3.6;89
61880;BME280;47817;52.798;27.544;2022-12-17T19:09:54;1024.4;;;-3.7;88.4
61880;BME280;47817;52.798;27.544;2022-12-17T19:14:54;1024.4;;;-3.7;88.1
61880;BME280;47817;52.798;27.544;2022-12-17T19:19:44;1024.4;;;-3.7;87.9
61880;BME280;47817;52.798;27.544;2022-12-17T19:25:06;1024.6;;;-3.7;87.4
61880;BME280;47817;52.798;27.544;2022-12-17T19:29:42;1024.7;;;-3.6;86.9
61880;BME280;47817;52.798;27.544;2022-12-17T19:34:44;1024.9;;;-3.6;87
61880;BME280;47817;52.798;27.544;2022-12-17T19:39:34;1025;;;-3.6;86.9
61880;BME280;47817;52.798;27.544;2022-12-17T19:45:04;1025;;;-3.6;86.7
61880;BME280;47817;52.798;27.544;2022-12-17T19:50:08;1025.1;;;-3.6;86.6
61880;BME280;47817;52.798;27.544;2022-12-17T19:54:34;1025.2;;;-3.6;86.6
61880;BME280;47817;52.798;27.544;2022-12-17T19:59:48;1025.3;;;-3.6;86.6
61880;BME280;47817;52.798;27.544;2022-12-17T20:04:46;1025.4;;;-3.7;86.5
61880;BME280;47817;52.798;27.544;2022-12-17T20:10:08;1025.4;;;-3.6;86.6
61880;BME280;47817;52.798;27.544;2022-12-17T20:15:06;1025.5;;;-3.6;86.7
61880;BME280;47817;52.798;27.544;2022-12-17T20:19:46;1025.4;;;-3.6;86.3
61880;BME280;47817;52.798;27.544;2022-12-17T20:24:46;1025.4;;;-3.7;86.3
61880;BME280;47817;52.798;27.544;2022-12-17T20:29:32;1025.4;;;-3.6;86.4
61880;BME280;47817;52.798;27.544;2022-12-17T20:35:06;1025.3;;;-3.7;86.4
61880;BME280;47817;52.798;27.544;2022-12-17T20:40:06;1025;;;-3.6;86.3
61880;BME280;47817;52.798;27.544;2022-12-17T20:44:22;1025.1;;;-3.6;86.4
61880;BME280;47817;52.798;27.544;2022-12-17T20:49:54;1025.3;;;-3.6;86.2
61880;BME280;47817;52.798;27.544;2022-12-17T20:54:56;1025.4;;;-3.7;85.9
61880;BME280;47817;52.798;27.544;2022-12-17T20:59:56;1025.6;;;-3.6;85.9
61880;BME280;47817;52.798;27.544;2022-12-17T21:05:06;1025.8;;;-3.6;85.9
61880;BME280;47817;52.798;27.544;2022-12-17T21:09:42;1025.8;;;-3.6;85.8
61880;BME280;47817;52.798;27.544;2022-12-17T21:14:46;1025.9;;;-3.6;85.6
61880;BME280;47817;52.798;27.544;2022-12-17T21:20:06;1025.9;;;-3.6;85.6
61880;BME280;47817;52.798;27.544;2022-12-17T21:25:08;1026.2;;;-3.6;85.5
61880;BME280;47817;52.798;27.544;2022-12-17T21:30:08;1026.3;;;-3.5;85.6
61880;BME280;47817;52.798;27.544;2022-12-17T21:34:22;1026.4;;;-3.5;85.3
61880;BME280;47817;52.798;27.544;2022-12-17T21:39:56;1026.4;;;-3.5;85.3
61880;BME280;47817;52.798;27.544;2022-12-17T21:44:58;1026.3;;;-3.5;85.2
61880;BME280;47817;52.798;27.544;2022-12-17T21:50:02;1026.3;;;-3.5;85.2
61880;BME280;47817;52.798;27.544;2022-12-17T21:55:02;1026.2;;;-3.5;85.2
61880;BME280;47817;52.798;27.544;2022-12-17T21:59:23;1026.3;;;-3.5;85.2
61880;BME280;47817;52.798;27.544;2022-12-17T22:04:30;1026.5;;;-3.6;85.3
61880;BME280;47817;52.798;27.544;2022-12-17T22:09:22;1026.5;;;-3.6;85.4
61880;BME280;47817;52.798;27.544;2022-12-17T22:15:04;1026.6;;;-3.7;85.5
61880;BME280;47817;52.798;27.544;2022-12-17T22:20:04;1026.7;;;-3.7;85.5
61880;BME280;47817;52.798;27.544;2022-12-17T22:24:52;1026.7;;;-3.7;85.5
61880;BME280;47817;52.798;27.544;2022-12-17T22:29:54;1026.9;;;-3.7;85.5
61880;BME280;47817;52.798;27.544;2022-12-17T22:34:44;1026.9;;;-3.7;85.5
61880;BME280;47817;52.798;27.544;2022-12-17T22:40:04;1027;;;-3.7;85.5
61880;BME280;47817;52.798;27.544;2022-12-17T22:45:04;1027.1;;;-3.7;85.5
61880;BME280;47817;52.798;27.544;2022-12-17T22:49:42;1027.1;;;-3.8;85.7
61880;BME280;47817;52.798;27.544;2022-12-17T22:54:40;1027.1;;;-3.7;86.1
61880;BME280;47817;52.798;27.544;2022-12-17T22:59:31;1027.1;;;-3.8;86.7
61880;BME280;47817;52.798;27.544;2022-12-17T23:05:04;1027.1;;;-3.8;86.9
61880;BME280;47817;52.798;27.544;2022-12-17T23:10:03;1027.1;;;-3.8;88
61880;BME280;47817;52.798;27.544;2022-12-17T23:14:32;1027.1;;;-3.8;88.6
61880;BME280;47817;52.798;27.544;2022-12-17T23:19:44;1027.1;;;-3.9;89.3
61880;BME280;47817;52.798;27.544;2022-12-17T23:24:54;1027.1;;;-3.9;90.2
61880;BME280;47817;52.798;27.544;2022-12-17T23:30:03;1027.1;;;-3.9;90.5
61880;BME280;47817;52.798;27.544;2022-12-17T23:35:02;1027.1;;;-4;91
61880;BME280;47817;52.798;27.544;2022-12-17T23:39:22;1027.2;;;-4;91.2
61880;BME280;47817;52.798;27.544;2022-12-17T23:44:30;1027.2;;;-4;91.5
61880;BME280;47817;52.798;27.544;2022-12-17T23:49:22;1027.3;;;-4;91.9
61880;BME280;47817;52.798;27.544;2022-12-17T23:55:04;1027.4;;;-4;92.2
61880;BME280;47817;52.798;27.544;2022-12-17T23:59:32;1027.5;;;-4;91.9
